Terminal Aerodrome Forecast
Issued by NWS Austin/San Antonio, TX

Current Version | Previous Version | Text Only | Print | Product List | Glossary On
Versions: 1 2 3 4 5 6 7 8 9 10 11 12 13 14 15
000
FTUS44 KEWX 091130
TAFAUS
TAF
KAUS 091130Z 0912/1018 27006KT P6SM SKC
     FM091600 33011KT P6SM SKC
     FM100000 VRB03KT P6SM SKC
     FM101600 20007KT P6SM SKC=

USA.gov is the U.S. government's official web portal to all federal, state and local government web resources and services.